Terminal Aerodrome Forecast
Issued by NWS

Home | Current Version | Previous Version | Text Only | Print | Product List | Glossary On
Versions: 1 2 3 4 5 6 7 8 9 10 11 12 13 14
774
FTUS43 KSGF 261857 RRA
TAFBBG
TAF
KBBG 261857Z 2619/2718 21007KT P6SM BKN035 OVC045
     FM270100 VRB03KT P6SM BKN030
     FM270700 VRB03KT 3SM BR BKN004=

USA.gov is the U.S. government's official web portal to all federal, state and local government web resources and services.